Decoded Metar for LELL (SABADELL in SPAIN) (IATA:QSA) | Meteo·Mobile Aviation Weather
aviador You're here:

LELL Decoded Metar

SABADELL in SPAIN
Report Time2019-11-14 11:30:00
UTC Time2019-11-14 12:03:04
Flight Rules vfr VFR
Wind260° at 05 kt
W.Decomp.*RWY 31: 3.2 kt HW 3.8 kt LCW
Visibility9999 m
Phenomena:N/A
Clouds:Few 015 Hf
Broken 065 Hf
Expected CloudBase > 1,200 ft AGL from Temp-Dew spread
Ceiling6,500 ft
Temp12°C (ISA -2)
Dew Point09°C (82% RH)
AAT10.0°C
QNH0997 hPa
Density Alt945 ft
Elevation485 ft
Report Wrong Elevation
Raw Report
LELL 141130Z 26005KT 230V300 9999 FEW015 BKN065 12/09 Q0997
RERA=

Extra information for LELL:More info

Metar Taf Metar & Taf Last 4 Metars F.Rules Stats Wind Profile Meteogram Temp Stats Airport Information Weather charts Add Link Nearby VenuesMetar ALERT Operation Metar Decoded Social comments

Aeroclub BS Web Page